Historyczne dane pomiarowe

Dodano dane terminowe – wersja testowa.

Dane z okresu 1951-2019

Wersja bazy: 1.34 [2019-03-16, lista zmian], aktualizacja planowana na 2019-04-15

Dane meteo z obszaru Polski uzyskane na podstawie danych udostępnionych przez Instytut Meteorologii i Gospodarki Wodnej – Państwowy Instytut Badawczy.

 

Wybierz Datę:    

       

TemperaturaWilgotnośćWiatrCiśnienieOpadyŚniegCzas trwania zjawisk
 Stacja t tx tn tng RH VA  wxwx mslp ppp RRR   cm mm wxwxwxwxwxwxwx
1999-08-14 12.3 19.4 5.2 0.8 70.8- 2.3 1.3---- 0.8------------
1999-08-13 11.7 15.8 7.4 4.4 73.8- 5.3 2.0---- 0.0------------
1999-08-12 12.6 15.8 11.0 9.9 79.3- 5.3 1.3---- 0.0------------
1999-08-11 16.1 20.5 13.0 8.5 83.8- 7.0 1.3---- 2.9------------
1999-08-10 18.3 20.8 15.1 10.9 74.8- 8.0 1.7---- 0.5------------
1999-08-09 19.1 24.5 15.7 11.1 77.0- 3.7 2.0---- 4.1------------
1999-08-08 19.8 25.9 13.7 9.4 80.0- 3.7 1.3---- 0.0------------
1999-08-07 18.5 26.9 14.5 10.1 82.0- 3.0 2.0---- 6.4------------
1999-08-06 20.3 24.8 16.8 5.2 57.5- 3.7 1.3---- 0.0------------
1999-08-05 17.5 24.8 10.2 5.0 63.3- 1.7 0.7---- 0.0------------
1999-08-04 16.1 23.4 9.5 5.5 58.8- 0.7 0.3---- 0.0------------
1999-08-03 15.9 22.0 9.0 5.5 69.8- 3.0 1.0---- 0.0------------
1999-08-02 16.5 21.8 9.8 5.7 69.3- 3.0 0.0---- 0.0------------
1999-08-01 16.2 22.6 9.5 5.5 60.8- 2.7 1.0---- 0.0------------
1999-07-31 16.0 22.8 9.2 5.0 66.5- 3.3 1.0---- 0.0------------
1999-07-30 15.4 21.3 8.5 7.0 68.0- 1.7 0.0---- 0.0------------
1999-07-29 15.5 21.0 8.8 5.0 70.8- 4.0 2.0---- 0.0------------
1999-07-28 15.2 20.8 8.9 4.9 67.8- 1.7 2.7---- 0.0------------
1999-07-27 16.3 22.4 12.5 10.5 85.3- 6.7 2.3---- 0.0------------
1999-07-26 18.1 23.8 10.8 5.1 67.8- 1.0 1.3---- 4.0------------
1999-07-25 15.9 23.7 7.2 5.2 77.3- 2.0 0.7---- 0.0------------
1999-07-24 13.2 15.4 10.8 10.6 81.5- 7.0 1.0---- 0.0------------
1999-07-23 13.5 17.8 10.0 8.0 80.5- 7.7 2.0---- 1.0------------
1999-07-22 17.1 22.3 14.8 9.9 65.5- 5.7 4.3---- 0.0------------
1999-07-21 20.5 24.0 16.2 12.4 63.3- 6.0 2.0---- 0.0------------
1999-07-20 19.5 26.8 15.6 10.9 72.0- 2.3 1.7---- 13.2------------
1999-07-19 19.2 24.5 12.5 6.3 63.0- 2.7 0.7---- 0.0------------
1999-07-18 18.0 22.6 10.5 7.5 57.3- 2.7 2.3---- 0.0------------
1999-07-17 15.2 20.2 8.1 6.0 64.5- 2.3 1.0---- 0.0------------
1999-07-16 13.1 16.5 7.6 6.0 78.8- 6.7 1.0---- 0.0------------
1999-07-15 13.7 16.5 11.2 6.9 79.3- 8.0 0.0---- 1.0------------
1999-07-14 16.8 20.5 13.0 11.9 75.0- 8.0 0.0---- 9.1------------
1999-07-13 17.2 20.7 13.0 12.4 88.3- 6.7 1.3---- 0.0------------
1999-07-12 19.0 24.0 13.1 8.9 80.3- 5.0 0.0---- 3.0------------
1999-07-11 17.2 19.5 14.9 13.4 84.0- 7.7 2.0---- 0.0------------
1999-07-10 17.3 20.5 12.0 11.4 86.0- 8.0 3.7---- 0.0------------
1999-07-09 14.8 16.6 12.0 11.9 98.3- 8.0 0.0---- 14.0------------
1999-07-08 12.4 13.0 11.2 9.9 99.0- 8.0 1.7---- 33.5------------
1999-07-07 15.7 22.6 12.4 12.1 88.8- 7.7 1.7---- 36.0------------
1999-07-06 22.9 27.6 19.5 18.0 70.5- 5.7 5.7---- 16.0------------
1999-07-05 23.1 26.9 19.5 15.0 60.8- 1.0 8.7---- 0.0------------
1999-07-04 20.8 27.8 10.0 8.5 53.5- 0.7 4.0---- 0.0------------
1999-07-03 17.5 22.5 10.0 8.5 68.8- 1.3 0.3---- 0.0------------
1999-07-02 16.8 20.0 12.0 8.0 83.5- 5.7 0.7---- 0.0------------
1999-07-01 16.4 21.2 13.0 8.8 95.0- 8.0 1.0---- 13.0------------
1999-06-30 17.7 21.8 10.7 10.4 66.0- 4.0 2.3---- 0.0------------
1999-06-29 14.9 19.1 9.0 4.3 70.8- 3.3 1.0---- 0.0------------
1999-06-28 17.6 21.5 14.0 10.7 77.3- 6.0 2.7---- 0.3------------
1999-06-27 15.9 20.3 12.0 11.9 73.8- 8.0 3.3---- 26.2------------
1999-06-26 14.3 19.8 7.7 6.9 75.0- 3.3 4.0---- 0.0------------
1999-06-25 10.0 13.8 4.2 -1.9 80.0- 7.3 1.7---- 16.6------------
1999-06-24 9.1 12.1 3.4 1.6 80.0- 6.0 0.7---- 0.0------------
1999-06-23 9.7 13.1 5.5 4.9 69.5- 6.3 6.7---- 0.0------------
1999-06-22 6.2 9.5 4.5 2.1 96.5- 8.0 4.7---- 25.0------------
1999-06-21 13.2 17.8 9.0 7.6 72.5- 7.0 0.0---- 25.0------------
1999-06-20 15.1 17.8 11.0 10.1 85.8- 7.3 0.0---- 0.0------------
1999-06-19 12.6 15.2 10.4 5.6 94.5- 8.0 0.0---- 2.6------------
1999-06-18 13.8 17.4 11.3 10.0 95.0- 8.0 0.0---- 15.7------------
1999-06-17 15.1 18.3 10.3 6.2 87.8- 7.3 0.0---- 0.0------------
1999-06-16 14.5 17.4 12.3 7.4 93.3- 8.0 0.3---- 2.3------------
337.0 ms

 

Źródłem pochodzenia danych jest Instytut Meteorologii i Gospodarki Wodnej – Państwowy Instytut Badawczy. Dane Instytutu Meteorologii i Gospodarki Wodnej – Państwowego Instytutu Badawczego zostały przetworzone.

Dane źródłowe można odnaleźć na stronie https://dane.imgw.pl